Time;durP1;ratioP1;P1;durP2;ratioP2;P2;SDS_P1;SDS_P2;PMS_P1;PMS_P2;Temp;Humidity;BMP_temperature;BMP_pressure;BME280_temperature;BME280_humidity;BME280_pressure;Samples;Min_cycle;Max_cycle;Signal;HPM_P1;HPM_P2
2024/01/02 00:01:09;;;;;;;11.25;1.98;;;;;;;10.84;62.27;100041.41;4966774;28;114865;-85
2024/01/02 00:03:37;;;;;;;8.05;1.77;;;;;;;10.85;62.13;100033.38;4965685;28;112983;-83
2024/01/02 00:06:04;;;;;;;8.00;1.83;;;;;;;10.87;62.13;100035.94;4945978;28;124947;-83
2024/01/02 00:08:31;;;;;;;7.80;1.70;;;;;;;10.87;62.52;100025.34;4964593;28;125088;-83
2024/01/02 00:10:59;;;;;;;8.57;1.90;;;;;;;10.88;62.39;100021.75;4966706;28;113404;-82
2024/01/02 00:13:26;;;;;;;6.60;1.83;;;;;;;10.90;62.34;100019.84;4989623;28;113470;-82
2024/01/02 00:15:53;;;;;;;10.32;1.90;;;;;;;10.90;62.29;99998.66;4974028;28;123752;-81
2024/01/02 00:18:20;;;;;;;11.60;1.90;;;;;;;10.92;62.42;99996.78;4965012;28;123636;-82
2024/01/02 00:20:48;;;;;;;12.13;1.60;;;;;;;10.93;62.55;99993.19;4948532;28;112743;-82
2024/01/02 00:23:15;;;;;;;10.50;1.63;;;;;;;10.94;62.64;99976.34;4974772;28;113674;-82
2024/01/02 00:25:42;;;;;;;11.40;1.92;;;;;;;10.95;62.60;99970.09;4971783;28;125144;-82
2024/01/02 00:28:11;;;;;;;7.05;1.90;;;;;;;10.97;62.59;99957.63;4951726;28;124747;-82
2024/01/02 00:30:40;;;;;;;11.20;1.80;;;;;;;10.98;62.62;99943.44;4957384;28;116024;-82
2024/01/02 00:33:07;;;;;;;7.65;1.45;;;;;;;10.99;62.63;99945.13;4964858;28;114444;-83
2024/01/02 00:35:35;;;;;;;7.43;1.33;;;;;;;11.00;62.71;99938.88;4964663;28;121999;-82
2024/01/02 00:38:03;;;;;;;6.13;1.38;;;;;;;11.01;62.72;99937.94;4954454;28;123266;-82
2024/01/02 00:40:30;;;;;;;8.25;1.38;;;;;;;11.02;62.79;99918.44;4970406;28;113458;-82
2024/01/02 00:42:57;;;;;;;12.40;1.50;;;;;;;11.02;62.76;99902.53;4954821;28;115973;-82
2024/01/02 00:45:25;;;;;;;7.32;1.27;;;;;;;11.03;62.84;99898.94;4962704;28;123239;-83
2024/01/02 00:47:52;;;;;;;9.52;1.63;;;;;;;11.04;62.73;99879.47;4951270;28;123853;-83
2024/01/02 00:50:22;;;;;;;9.70;1.60;;;;;;;11.03;62.91;99864.50;4936923;28;113677;-83
2024/01/02 00:52:49;;;;;;;11.05;1.60;;;;;;;11.05;62.95;99859.94;4965073;28;114911;-83
2024/01/02 00:55:16;;;;;;;9.70;1.67;;;;;;;11.05;62.93;99852.00;4963017;28;124657;-82
2024/01/02 00:57:44;;;;;;;5.28;1.10;;;;;;;11.05;62.87;99833.44;4932437;28;124440;-83
2024/01/02 01:00:11;;;;;;;4.15;1.33;;;;;;;11.05;62.93;99817.53;4950520;28;113657;-82
2024/01/02 01:02:38;;;;;;;9.18;1.70;;;;;;;11.06;63.04;99819.25;4959896;28;115064;-84
2024/01/02 01:05:06;;;;;;;6.72;1.23;;;;;;;11.08;63.25;99811.22;4949860;28;124155;-83
2024/01/02 01:07:34;;;;;;;8.05;1.30;;;;;;;11.08;63.22;99796.16;4950177;28;123583;-82
2024/01/02 01:10:01;;;;;;;6.05;1.23;;;;;;;11.09;63.25;99789.94;4949657;28;114723;-83
2024/01/02 01:12:28;;;;;;;7.90;1.20;;;;;;;11.10;63.21;99781.00;4965171;28;113506;-83
2024/01/02 01:14:56;;;;;;;6.32;1.42;;;;;;;11.12;63.14;99757.06;4945760;28;124824;-83
2024/01/02 01:17:24;;;;;;;6.25;0.90;;;;;;;11.13;63.39;99747.31;4933578;28;126284;-82
2024/01/02 01:19:51;;;;;;;4.63;1.10;;;;;;;11.12;63.37;99737.69;4949585;28;114249;-83
2024/01/02 01:22:18;;;;;;;6.60;1.20;;;;;;;11.13;63.34;99728.75;4946041;28;114826;-83
2024/01/02 01:24:45;;;;;;;3.22;1.17;;;;;;;11.14;63.43;99725.19;4929534;28;125197;-83
2024/01/02 01:27:13;;;;;;;7.85;0.93;;;;;;;11.13;63.41;99715.50;4946448;28;123894;-83
2024/01/02 01:29:40;;;;;;;4.93;0.90;;;;;;;11.14;63.54;99698.69;4950539;28;115538;-83
2024/01/02 01:32:09;;;;;;;2.60;0.93;;;;;;;11.15;63.37;99703.00;4949423;28;116117;-83
2024/01/02 01:34:36;;;;;;;3.97;0.82;;;;;;;11.14;63.65;99688.91;4948457;28;123794;-84
2024/01/02 01:37:04;;;;;;;4.25;1.00;;;;;;;11.15;63.47;99679.16;4947390;28;123459;-84
2024/01/02 01:39:31;;;;;;;2.53;0.80;;;;;;;11.15;63.45;99653.53;4949176;28;112997;-84
2024/01/02 01:41:59;;;;;;;3.55;1.00;;;;;;;11.16;63.46;99654.38;4947875;28;114701;-84
2024/01/02 01:44:26;;;;;;;2.25;0.90;;;;;;;11.16;63.58;99655.22;4948652;28;124686;-84
2024/01/02 01:46:54;;;;;;;4.28;0.80;;;;;;;11.17;63.08;99637.50;4956180;28;124919;-84
2024/01/02 01:49:22;;;;;;;5.60;0.90;;;;;;;11.16;63.46;99623.41;4965473;28;113368;-83
2024/01/02 01:51:53;;;;;;;2.78;0.73;;;;;;;11.17;63.50;99629.56;4968136;28;114735;-84
2024/01/02 01:54:22;;;;;;;3.17;0.80;;;;;;;11.17;63.50;99624.25;4934922;28;123172;-84
2024/01/02 01:56:51;;;;;;;2.05;0.60;;;;;;;11.17;63.47;99613.66;4949250;28;124752;-83
2024/01/02 01:59:19;;;;;;;3.60;0.82;;;;;;;11.16;63.54;99606.69;4935715;28;115171;-84
2024/01/02 02:01:48;;;;;;;3.70;0.77;;;;;;;11.17;63.54;99597.75;4950609;28;115044;-83
2024/01/02 02:04:16;;;;;;;1.85;0.50;;;;;;;11.15;63.64;99584.63;4931023;28;124480;-83
2024/01/02 02:06:45;;;;;;;1.88;0.60;;;;;;;11.15;63.41;99583.75;4950330;28;126043;-83
2024/01/02 02:09:13;;;;;;;2.10;0.77;;;;;;;11.14;63.70;99576.78;4925342;28;116081;-86
2024/01/02 02:11:40;;;;;;;3.42;0.77;;;;;;;11.13;63.55;99559.16;4950095;28;114543;-83
2024/01/02 02:14:08;;;;;;;6.72;0.85;;;;;;;11.12;63.76;99552.19;4949263;28;126290;-84
2024/01/02 02:16:36;;;;;;;2.92;0.65;;;;;;;11.12;63.66;99533.66;4969986;28;125930;-84
2024/01/02 02:19:03;;;;;;;2.15;0.70;;;;;;;11.12;63.78;99526.53;4951558;28;114947;-83
2024/01/02 02:21:31;;;;;;;1.13;0.50;;;;;;;11.10;63.64;99529.28;4949018;28;115719;-84
2024/01/02 02:23:58;;;;;;;1.50;0.60;;;;;;;11.10;63.72;99517.84;4974008;28;125506;-84
2024/01/02 02:26:25;;;;;;;2.35;0.63;;;;;;;11.09;63.63;99501.09;4956981;28;123371;-84
2024/01/02 02:28:53;;;;;;;1.40;0.60;;;;;;;11.09;63.96;99490.50;4988694;28;113189;-83
2024/01/02 02:31:20;;;;;;;3.38;0.70;;;;;;;11.08;63.68;99480.84;4977199;28;114968;-83
2024/01/02 02:33:47;;;;;;;2.75;0.70;;;;;;;11.09;63.88;99464.00;4979499;28;122177;-84
2024/01/02 02:36:15;;;;;;;1.27;0.68;;;;;;;11.10;63.97;99464.84;4950901;28;124930;-84
2024/01/02 02:38:42;;;;;;;1.92;0.60;;;;;;;11.10;63.79;99455.09;4951005;28;114216;-84
2024/01/02 02:41:09;;;;;;;1.40;0.40;;;;;;;11.10;63.99;99449.78;4967086;28;114704;-84
2024/01/02 02:43:37;;;;;;;1.45;0.50;;;;;;;11.12;63.90;99452.34;4966219;28;124815;-84
2024/01/02 02:46:04;;;;;;;1.15;0.40;;;;;;;11.13;63.93;99442.59;4949617;28;125372;-84
2024/01/02 02:48:31;;;;;;;1.15;0.47;;;;;;;11.12;64.02;99430.31;4967127;28;115610;-84
2024/01/02 02:50:59;;;;;;;2.85;0.52;;;;;;;11.09;63.84;99400.41;4950515;28;115011;-84
2024/01/02 02:53:26;;;;;;;2.70;0.60;;;;;;;11.11;64.15;99408.25;4966057;28;123857;-84
2024/01/02 02:55:53;;;;;;;1.63;0.60;;;;;;;11.12;64.46;99403.81;4930467;28;124737;-84
2024/01/02 02:58:21;;;;;;;0.73;0.40;;;;;;;11.13;64.10;99400.19;4967601;28;113659;-83
2024/01/02 03:00:48;;;;;;;1.30;0.50;;;;;;;11.11;64.15;99387.03;4969494;28;113972;-84
2024/01/02 03:03:15;;;;;;;0.40;0.30;;;;;;;11.12;64.05;99361.41;4969731;28;123664;-84
2024/01/02 03:05:42;;;;;;;1.02;0.40;;;;;;;11.12;64.13;99350.81;4954717;28;123664;-84
2024/01/02 03:08:10;;;;;;;0.40;0.40;;;;;;;11.12;64.13;99351.66;4952402;28;114306;-84
2024/01/02 03:10:37;;;;;;;0.38;0.30;;;;;;;11.12;64.20;99340.22;4954065;28;115687;-84
2024/01/02 03:13:04;;;;;;;0.93;0.40;;;;;;;11.13;64.24;99326.00;4972248;28;125319;-84
2024/01/02 03:15:31;;;;;;;0.65;0.55;;;;;;;11.13;64.43;99326.84;4968613;28;123254;-84
2024/01/02 03:17:59;;;;;;;1.33;0.40;;;;;;;11.14;64.11;99323.25;4971189;28;112861;-84
2024/01/02 03:20:26;;;;;;;0.70;0.50;;;;;;;11.15;64.33;99308.19;4955175;28;113977;-84
2024/01/02 03:22:55;;;;;;;1.45;0.40;;;;;;;11.15;64.47;99298.44;4955252;28;123604;-85
2024/01/02 03:25:22;;;;;;;2.50;0.40;;;;;;;11.15;64.45;99297.56;4955211;28;123588;-84
2024/01/02 03:27:49;;;;;;;0.40;0.30;;;;;;;11.16;64.54;99299.28;4955212;28;112210;-84
2024/01/02 03:30:18;;;;;;;1.23;0.40;;;;;;;11.16;64.37;99288.69;4971757;28;114348;-84
2024/01/02 03:32:45;;;;;;;0.40;0.30;;;;;;;11.17;64.35;99263.88;4974092;28;125038;-85
2024/01/02 03:35:12;;;;;;;2.05;0.40;;;;;;;11.16;64.40;99246.28;4971222;28;125168;-84
2024/01/02 03:37:40;;;;;;;0.82;0.50;;;;;;;11.17;64.57;99232.06;4971105;28;112366;-84
2024/01/02 03:40:08;;;;;;;0.40;0.30;;;;;;;11.17;64.42;99210.88;4956678;28;114272;-84
2024/01/02 03:42:35;;;;;;;0.85;0.47;;;;;;;11.16;64.60;99209.19;4968131;28;123240;-84
2024/01/02 03:45:02;;;;;;;0.95;0.38;;;;;;;11.18;64.65;99208.09;4952400;28;122659;-84
2024/01/02 03:47:30;;;;;;;0.50;0.30;;;;;;;11.19;64.64;99203.66;4965779;28;116008;-84
2024/01/02 03:49:57;;;;;;;0.38;0.30;;;;;;;11.21;64.82;99207.06;4966385;28;114688;-84
2024/01/02 03:52:25;;;;;;;1.25;0.50;;;;;;;11.23;64.66;99189.25;4950708;28;124946;-84
2024/01/02 03:54:52;;;;;;;1.23;0.50;;;;;;;11.23;64.75;99174.19;4935535;28;124385;-84
2024/01/02 03:57:19;;;;;;;0.73;0.43;;;;;;;11.23;64.66;99168.88;4991739;28;114270;-83
2024/01/02 03:59:47;;;;;;;0.50;0.40;;;;;;;11.25;64.81;99171.41;4987964;28;116296;-83
2024/01/02 04:02:14;;;;;;;0.50;0.40;;;;;;;11.26;64.90;99173.09;4974916;28;124135;-84
2024/01/02 04:04:41;;;;;;;0.70;0.50;;;;;;;11.28;65.03;99179.13;4936489;28;124011;-84
2024/01/02 04:07:08;;;;;;;0.35;0.30;;;;;;;11.29;65.18;99162.28;4951431;28;113389;-85
2024/01/02 04:09:36;;;;;;;0.75;0.40;;;;;;;11.30;64.80;99159.50;4952059;28;114536;-84
2024/01/02 04:12:03;;;;;;;1.25;0.57;;;;;;;11.32;65.10;99156.75;4966649;28;123864;-85
2024/01/02 04:14:30;;;;;;;0.77;0.40;;;;;;;11.32;65.17;99156.75;4939376;28;123952;-84
2024/01/02 04:16:57;;;;;;;1.25;0.50;;;;;;;11.34;65.21;99149.53;4950616;28;115070;-85
2024/01/02 04:19:25;;;;;;;1.83;0.50;;;;;;;11.38;65.12;99139.53;4954062;28;115066;-84
2024/01/02 04:21:52;;;;;;;0.55;0.50;;;;;;;11.40;65.19;99133.16;4949137;28;124659;-84
2024/01/02 04:24:19;;;;;;;0.70;0.40;;;;;;;11.44;65.45;99129.28;4945007;28;123441;-84
2024/01/02 04:26:46;;;;;;;0.60;0.50;;;;;;;11.47;65.46;99112.31;4948616;28;114971;-84
2024/01/02 04:29:13;;;;;;;0.60;0.40;;;;;;;11.50;65.61;99118.22;4945265;28;113076;-84
2024/01/02 04:31:41;;;;;;;2.28;0.65;;;;;;;11.54;65.41;99113.53;4947073;28;124290;-84
2024/01/02 04:34:08;;;;;;;0.40;0.40;;;;;;;11.59;65.57;99113.19;4943246;28;124052;-85
2024/01/02 04:36:35;;;;;;;1.92;0.50;;;;;;;11.63;65.80;99114.63;4953325;28;113740;-84
2024/01/02 04:39:03;;;;;;;0.40;0.40;;;;;;;11.66;65.80;99127.66;4986267;28;114343;-84
2024/01/02 04:41:30;;;;;;;0.30;0.30;;;;;;;11.69;65.79;99127.41;4968085;28;125257;-85
2024/01/02 04:43:57;;;;;;;0.57;0.40;;;;;;;11.73;65.83;99134.16;4949373;28;124937;-84
2024/01/02 04:46:27;;;;;;;0.65;0.40;;;;;;;11.78;65.74;99121.41;4964569;28;116416;-84
2024/01/02 04:48:55;;;;;;;0.68;0.40;;;;;;;11.82;65.73;99109.56;4965931;28;115872;-84
2024/01/02 04:51:22;;;;;;;1.80;0.40;;;;;;;11.86;65.79;99108.38;4964517;28;123980;-84
2024/01/02 04:53:49;;;;;;;0.38;0.38;;;;;;;11.88;66.01;99101.16;4958097;28;123314;-84
2024/01/02 04:56:17;;;;;;;0.50;0.45;;;;;;;11.92;66.04;99100.94;4949459;28;114030;-84
2024/01/02 04:58:44;;;;;;;0.40;0.40;;;;;;;11.95;66.01;99106.00;4941662;28;114783;-85
2024/01/02 05:01:11;;;;;;;0.50;0.40;;;;;;;11.99;66.08;99102.16;4954140;28;125326;-84
2024/01/02 05:03:38;;;;;;;0.40;0.40;;;;;;;12.01;66.09;99094.91;4948200;28;122881;-85
2024/01/02 05:06:06;;;;;;;0.47;0.40;;;;;;;12.05;66.27;99085.72;4965176;28;114573;-84
2024/01/02 05:08:34;;;;;;;0.75;0.40;;;;;;;12.10;66.31;99099.47;4948885;28;115114;-86
2024/01/02 05:11:01;;;;;;;0.40;0.40;;;;;;;12.12;66.20;99086.94;4948294;28;123798;-85
2024/01/02 05:13:28;;;;;;;0.30;0.30;;;;;;;12.16;66.47;99099.00;4964776;28;125141;-85
2024/01/02 05:15:56;;;;;;;0.40;0.40;;;;;;;12.20;66.47;99084.50;4968149;28;113905;-85
2024/01/02 05:18:24;;;;;;;0.55;0.35;;;;;;;12.26;66.29;99089.34;4965014;28;113447;-85
2024/01/02 05:20:52;;;;;;;0.35;0.30;;;;;;;12.32;66.47;99087.13;4929563;28;125114;-85
2024/01/02 05:23:19;;;;;;;0.40;0.35;;;;;;;12.35;66.53;99087.75;4942094;28;125080;-85
2024/01/02 05:25:46;;;;;;;0.40;0.40;;;;;;;12.39;66.42;99093.66;4947049;28;115236;-85
2024/01/02 05:28:13;;;;;;;0.50;0.50;;;;;;;12.43;66.50;99090.63;4961934;28;114271;-85
2024/01/02 05:30:40;;;;;;;0.50;0.40;;;;;;;12.49;66.62;99099.06;4945780;28;125288;-84
2024/01/02 05:33:07;;;;;;;0.40;0.40;;;;;;;12.53;66.80;99090.72;4948186;28;124342;-84
2024/01/02 05:35:35;;;;;;;0.50;0.45;;;;;;;12.57;66.63;99076.22;4948094;28;115996;-85
2024/01/02 05:38:03;;;;;;;0.50;0.50;;;;;;;12.61;66.54;99077.66;4946896;28;116670;-85
2024/01/02 05:40:30;;;;;;;1.23;0.50;;;;;;;12.66;66.65;99075.47;4963906;28;123455;-85
2024/01/02 05:42:57;;;;;;;0.70;0.50;;;;;;;12.73;66.85;99080.28;4941679;28;127704;-85
2024/01/02 05:45:25;;;;;;;0.43;0.43;;;;;;;12.76;66.81;99064.94;4949149;28;115785;-85
2024/01/02 05:47:52;;;;;;;0.40;0.40;;;;;;;12.81;66.67;99072.53;4949856;28;114377;-85
2024/01/02 05:50:19;;;;;;;1.88;0.40;;;;;;;12.86;66.93;99065.00;4967068;28;125087;-85
2024/01/02 05:52:47;;;;;;;0.50;0.40;;;;;;;12.89;66.88;99070.06;4964058;28;122702;-85
2024/01/02 05:55:14;;;;;;;0.60;0.50;;;;;;;12.94;67.14;99077.66;4947469;28;114346;-86
2024/01/02 05:57:41;;;;;;;0.43;0.40;;;;;;;12.97;67.10;99078.22;4947696;28;113451;-85
2024/01/02 06:00:08;;;;;;;0.47;0.43;;;;;;;13.03;67.18;99088.38;4945312;28;123811;-85
2024/01/02 06:02:35;;;;;;;0.40;0.40;;;;;;;13.09;67.12;99092.34;4941949;28;124983;-84
2024/01/02 06:05:04;;;;;;;0.65;0.40;;;;;;;13.14;67.41;99094.59;4962486;28;115147;-85
2024/01/02 06:07:31;;;;;;;0.30;0.30;;;;;;;13.20;67.26;99102.03;4963229;28;114831;-85
2024/01/02 06:09:59;;;;;;;0.40;0.40;;;;;;;13.25;67.42;99107.81;4963058;28;124608;-84
2024/01/02 06:12:26;;;;;;;0.82;0.55;;;;;;;13.29;67.48;99095.97;4943845;28;123744;-85
2024/01/02 06:14:53;;;;;;;0.65;0.60;;;;;;;13.34;67.44;99091.13;4962610;28;113658;-85
2024/01/02 06:17:21;;;;;;;0.40;0.40;;;;;;;13.40;67.62;99109.22;4951341;28;113723;-85
2024/01/02 06:19:49;;;;;;;0.60;0.50;;;;;;;13.45;67.65;99114.16;4946852;28;124155;-85
2024/01/02 06:22:16;;;;;;;0.40;0.40;;;;;;;13.51;67.55;99107.47;4965653;28;124536;-85
2024/01/02 06:24:43;;;;;;;0.32;0.32;;;;;;;13.56;67.57;99098.13;4961393;28;116201;-86
2024/01/02 06:27:10;;;;;;;0.40;0.40;;;;;;;13.62;67.95;99104.75;4968288;28;114728;-85
2024/01/02 06:29:38;;;;;;;0.30;0.30;;;;;;;13.67;67.76;99107.00;4947540;28;125203;-85
2024/01/02 06:32:05;;;;;;;0.80;0.43;;;;;;;13.71;67.65;99119.94;4948133;28;123847;-86
2024/01/02 06:34:33;;;;;;;0.47;0.47;;;;;;;13.76;67.76;99128.34;4946702;28;113733;-86
2024/01/02 06:37:01;;;;;;;0.50;0.45;;;;;;;13.80;67.82;99124.41;4967295;28;114432;-87
2024/01/02 06:39:28;;;;;;;0.60;0.50;;;;;;;13.85;67.80;99136.53;4963922;28;124193;-85
2024/01/02 06:41:55;;;;;;;0.68;0.50;;;;;;;13.90;67.80;99142.25;4957112;28;123124;-85
2024/01/02 06:44:22;;;;;;;0.85;0.55;;;;;;;13.94;67.88;99141.06;4967501;28;115152;-85
2024/01/02 06:46:49;;;;;;;0.80;0.57;;;;;;;13.97;67.87;99130.13;4949817;28;115036;-86
2024/01/02 06:49:17;;;;;;;0.80;0.70;;;;;;;13.99;67.87;99141.47;4966509;28;123183;-86
2024/01/02 06:51:44;;;;;;;1.02;0.70;;;;;;;14.04;67.84;99149.91;4983758;28;123066;-85
2024/01/02 06:54:11;;;;;;;1.17;0.70;;;;;;;14.06;67.71;99139.97;4972719;28;114477;-86
2024/01/02 06:56:38;;;;;;;1.02;0.73;;;;;;;14.09;67.58;99155.69;4946788;28;114921;-86
2024/01/02 06:59:06;;;;;;;1.73;0.90;;;;;;;14.11;67.62;99159.06;4954186;28;122466;-85
2024/01/02 07:01:33;;;;;;;1.90;1.23;;;;;;;14.14;67.68;99169.41;4969089;28;122491;-85
2024/01/02 07:04:01;;;;;;;1.60;1.13;;;;;;;14.18;67.83;99164.66;4979004;28;115103;-85
2024/01/02 07:06:28;;;;;;;2.08;1.52;;;;;;;14.19;67.84;99161.88;4971489;28;114673;-85
2024/01/02 07:08:55;;;;;;;2.92;1.60;;;;;;;14.24;67.72;99157.97;4950453;28;123388;-84
2024/01/02 07:11:23;;;;;;;2.80;1.88;;;;;;;14.26;67.78;99156.00;4952719;28;123437;-85
2024/01/02 07:13:50;;;;;;;3.67;2.28;;;;;;;14.31;67.62;99159.13;4953189;28;114704;-84
2024/01/02 07:16:17;;;;;;;4.50;2.75;;;;;;;14.32;67.84;99166.16;4972137;28;115721;-84
2024/01/02 07:18:44;;;;;;;5.53;3.03;;;;;;;14.36;67.52;99167.56;4954599;28;125255;-85
2024/01/02 07:21:12;;;;;;;4.90;3.00;;;;;;;14.38;67.66;99173.59;4970644;28;124545;-85
2024/01/02 07:23:39;;;;;;;4.63;2.67;;;;;;;14.42;67.68;99177.66;4957907;28;114092;-84
2024/01/02 07:26:07;;;;;;;6.78;3.33;;;;;;;14.42;67.75;99172.34;4932939;28;114777;-84
2024/01/02 07:28:38;;;;;;;6.43;3.47;;;;;;;14.45;67.68;99177.41;4949107;28;124191;-83
2024/01/02 07:31:05;;;;;;;6.43;3.35;;;;;;;14.47;67.57;99191.44;4965339;28;123862;-84
2024/01/02 07:33:32;;;;;;;5.93;3.60;;;;;;;14.49;67.61;99189.47;4935191;28;113385;-83
2024/01/02 07:36:00;;;;;;;6.93;3.70;;;;;;;14.51;67.35;99198.16;4958036;28;114683;-84
2024/01/02 07:38:27;;;;;;;6.30;3.88;;;;;;;14.53;67.56;99201.53;4951964;28;122248;-84
2024/01/02 07:40:54;;;;;;;6.88;3.72;;;;;;;14.55;67.44;99204.91;4951875;28;123686;-84
2024/01/02 07:43:22;;;;;;;6.60;4.18;;;;;;;14.57;67.44;99208.31;4973347;28;113876;-82
2024/01/02 07:45:49;;;;;;;6.57;4.05;;;;;;;14.60;67.52;99209.88;4992029;28;113448;-83
2024/01/02 07:48:17;;;;;;;6.28;4.10;;;;;;;14.63;67.41;99219.41;4988539;28;123076;-83
2024/01/02 07:50:44;;;;;;;7.45;4.35;;;;;;;14.64;67.35;99223.78;4935148;28;122740;-83
2024/01/02 07:53:11;;;;;;;9.13;4.25;;;;;;;14.66;67.31;99232.47;4947193;28;115757;-83
2024/01/02 07:55:39;;;;;;;7.72;4.20;;;;;;;14.68;67.24;99230.53;4970263;28;114411;-83
2024/01/02 07:58:06;;;;;;;10.40;4.50;;;;;;;14.69;67.31;99233.06;4967149;28;123068;-82
2024/01/02 08:00:33;;;;;;;11.02;4.53;;;;;;;14.71;67.13;99230.22;4966948;28;122000;-83
2024/01/02 08:03:01;;;;;;;9.13;4.38;;;;;;;14.73;67.11;99244.25;4976335;28;114322;-83
2024/01/02 08:05:28;;;;;;;8.32;4.22;;;;;;;14.74;67.22;99251.28;4948310;28;114611;-83
2024/01/02 08:07:56;;;;;;;8.85;4.43;;;;;;;14.76;67.07;99252.84;4966213;28;123030;-83
2024/01/02 08:10:23;;;;;;;8.20;4.50;;;;;;;14.78;66.93;99258.88;4966196;28;125592;-82
2024/01/02 08:12:50;;;;;;;10.40;4.68;;;;;;;14.79;67.09;99246.41;4978640;28;113682;-83
2024/01/02 08:15:17;;;;;;;7.63;4.35;;;;;;;14.81;67.05;99247.13;4983577;28;113567;-83
2024/01/02 08:18:03;;;;;;;7.22;4.30;;;;;;;14.83;66.80;99239.81;4965157;28;124000;-81
2024/01/02 08:20:31;;;;;;;9.60;4.15;;;;;;;14.84;66.93;99235.31;4936005;28;124547;-83
2024/01/02 08:22:59;;;;;;;6.07;3.20;;;;;;;14.85;67.00;99248.53;4935576;28;115128;-83
2024/01/02 08:25:26;;;;;;;5.32;2.92;;;;;;;14.86;66.77;99244.88;4950306;28;114848;-83
2024/01/02 08:27:53;;;;;;;6.32;3.28;;;;;;;14.89;66.71;99249.09;4951751;28;124427;-84
2024/01/02 08:30:20;;;;;;;7.90;3.35;;;;;;;14.90;66.64;99251.63;4968025;28;124805;-83
2024/01/02 08:32:50;;;;;;;8.13;3.03;;;;;;;14.91;66.90;99245.31;4950224;28;115138;-83
2024/01/02 08:35:18;;;;;;;6.53;2.95;;;;;;;14.93;66.75;99246.00;4952559;28;113494;-83
2024/01/02 08:37:45;;;;;;;6.32;3.10;;;;;;;14.93;66.46;99240.69;4965055;28;124111;-83
2024/01/02 08:40:12;;;;;;;10.45;3.10;;;;;;;14.95;66.73;99238.72;4950713;28;123545;-83
2024/01/02 08:42:39;;;;;;;6.72;2.75;;;;;;;14.96;66.61;99245.75;4966963;28;113197;-83
2024/01/02 08:45:10;;;;;;;8.20;3.13;;;;;;;14.98;66.72;99242.94;4949968;28;114764;-83
2024/01/02 08:47:38;;;;;;;5.00;2.63;;;;;;;14.99;66.58;99245.47;4950994;28;124140;-83
2024/01/02 08:50:07;;;;;;;3.67;2.10;;;;;;;15.01;66.54;99232.00;4948936;28;124822;-83
2024/01/02 08:52:35;;;;;;;6.18;2.67;;;;;;;15.03;66.53;99229.19;4948830;28;114323;-84
2024/01/02 08:55:03;;;;;;;3.33;2.00;;;;;;;15.05;66.53;99227.22;4957133;28;114968;-83
2024/01/02 08:57:31;;;;;;;6.05;2.25;;;;;;;15.06;66.56;99228.94;4950527;28;125028;-83
2024/01/02 08:59:58;;;;;;;5.50;1.80;;;;;;;15.08;66.34;99226.97;4952654;28;125770;-83
2024/01/02 09:02:25;;;;;;;4.30;2.08;;;;;;;15.09;66.38;99224.16;4929379;28;114918;-83
2024/01/02 09:04:53;;;;;;;4.88;1.92;;;;;;;15.10;66.31;99220.50;4966893;28;115111;-83
2024/01/02 09:07:20;;;;;;;5.65;2.00;;;;;;;15.12;66.24;99212.38;4984432;28;126461;-83
2024/01/02 09:09:48;;;;;;;3.85;1.73;;;;;;;15.14;66.25;99210.41;4984506;28;122010;-83
2024/01/02 09:12:16;;;;;;;3.90;2.00;;;;;;;15.13;66.41;99214.06;4970218;28;114957;-83
2024/01/02 09:14:43;;;;;;;5.38;2.20;;;;;;;15.15;66.25;99212.09;4950543;28;114473;-82
2024/01/02 09:17:11;;;;;;;3.20;1.80;;;;;;;15.16;66.39;99197.78;4967074;28;124354;-83
2024/01/02 09:19:38;;;;;;;4.45;1.70;;;;;;;15.17;66.36;99205.63;4949090;28;123820;-83
2024/01/02 09:22:05;;;;;;;4.40;1.65;;;;;;;15.18;66.32;99201.13;4947715;28;113919;-83
2024/01/02 09:24:32;;;;;;;4.63;1.65;;;;;;;15.21;66.35;99200.88;4948158;28;115449;-83
2024/01/02 09:27:01;;;;;;;3.53;2.00;;;;;;;15.22;66.22;99191.91;4964812;28;124972;-83
2024/01/02 09:29:28;;;;;;;2.22;1.40;;;;;;;15.24;66.45;99199.75;4965443;28;123146;-83
2024/01/02 09:31:56;;;;;;;2.38;1.40;;;;;;;15.25;66.34;99202.28;4951631;28;114072;-83
2024/01/02 09:34:24;;;;;;;2.88;1.60;;;;;;;15.26;66.29;99201.31;4974246;28;112997;-83
2024/01/02 09:36:52;;;;;;;3.45;1.30;;;;;;;15.28;66.33;99196.66;4949209;28;123406;-83
2024/01/02 09:39:19;;;;;;;3.42;1.20;;;;;;;15.32;66.13;99192.72;4947699;28;125080;-83
2024/01/02 09:42:17;;;;;;;3.85;1.10;;;;;;;15.33;66.16;99199.78;4961236;28;113520;-83
2024/01/02 09:45:07;;;;;;;3.47;1.20;;;;;;;15.33;66.10;99194.44;4962795;28;115684;-83
2024/01/02 09:47:58;;;;;;;1.80;1.30;;;;;;;15.36;66.08;99194.13;4966610;28;126016;-83
2024/01/02 09:50:50;;;;;;;2.55;1.23;;;;;;;15.37;66.05;99201.16;4957631;28;124818;-82
2024/01/02 09:53:37;;;;;;;1.83;1.17;;;;;;;15.38;66.09;99202.00;4927288;28;113463;-82
2024/01/02 09:56:12;;;;;;;2.13;1.10;;;;;;;15.37;66.13;99205.66;4944852;28;114755;-82
2024/01/02 09:58:48;;;;;;;1.50;0.90;;;;;;;15.39;66.00;99203.69;4946910;28;124331;-82
2024/01/02 10:01:34;;;;;;;1.27;0.88;;;;;;;15.38;66.08;99200.16;4964892;28;123917;-82
2024/01/02 10:04:14;;;;;;;2.00;0.70;;;;;;;15.41;66.03;99195.53;4938957;28;112987;-82
2024/01/02 10:06:47;;;;;;;1.40;0.98;;;;;;;15.42;66.00;99186.56;4950979;28;112525;-83
2024/01/02 10:09:43;;;;;;;3.95;0.80;;;;;;;15.41;66.09;99200.88;4968138;28;125226;-82
2024/01/02 10:12:32;;;;;;;1.27;0.60;;;;;;;15.42;66.01;99207.91;4967823;28;126380;-83
2024/01/02 10:15:19;;;;;;;1.05;0.55;;;;;;;15.40;66.02;99197.38;4964852;28;112802;-82
2024/01/02 10:18:01;;;;;;;1.65;0.70;;;;;;;15.37;66.11;99195.84;4935540;28;114385;-82
2024/01/02 10:20:51;;;;;;;0.80;0.70;;;;;;;15.36;65.98;99194.13;4967418;28;125326;-82
2024/01/02 10:24:06;;;;;;;1.30;1.02;;;;;;;15.35;66.23;99192.47;4973883;28;124497;-83
2024/01/02 10:26:38;;;;;;;2.33;1.00;;;;;;;15.36;66.14;99188.81;4937075;28;114231;-83
2024/01/02 10:29:12;;;;;;;1.00;0.80;;;;;;;15.36;66.07;99178.13;4952949;28;112611;-83
2024/01/02 10:32:02;;;;;;;1.03;0.77;;;;;;;15.36;66.16;99180.78;4952316;28;125615;-83
2024/01/02 10:34:38;;;;;;;1.05;0.77;;;;;;;15.37;66.15;99169.16;4952417;28;124245;-82
2024/01/02 10:37:07;;;;;;;1.30;0.90;;;;;;;15.37;66.12;99166.50;4937879;28;116009;-82
2024/01/02 10:39:57;;;;;;;1.63;1.00;;;;;;;15.37;66.14;99160.31;4953916;28;114928;-83
2024/01/02 10:42:31;;;;;;;1.55;0.95;;;;;;;15.38;66.25;99160.16;4961873;28;122274;-83
2024/01/02 10:45:14;;;;;;;1.85;0.95;;;;;;;15.42;66.28;99154.53;4950205;28;124818;-83
2024/01/02 10:48:26;;;;;;;4.15;1.08;;;;;;;15.44;66.27;99141.91;4967674;28;114121;-82
2024/01/02 10:51:04;;;;;;;1.98;1.10;;;;;;;15.45;66.28;99138.28;4908308;28;114717;-82
2024/01/02 10:53:55;;;;;;;1.48;1.02;;;;;;;15.47;66.09;99130.97;4891137;28;123510;-82
2024/01/02 10:56:43;;;;;;;1.15;0.93;;;;;;;15.49;66.12;99145.00;4921612;28;123507;-82
2024/01/02 10:59:21;;;;;;;1.20;0.90;;;;;;;15.51;66.21;99148.34;4941746;28;112495;-82
2024/01/02 11:01:52;;;;;;;1.38;0.85;;;;;;;15.52;66.08;99139.34;4951570;28;113336;-82
2024/01/02 11:04:25;;;;;;;1.58;0.75;;;;;;;15.54;65.93;99132.06;4938528;28;123538;-83
2024/01/02 11:06:56;;;;;;;1.10;0.70;;;;;;;15.55;66.16;99123.06;4971714;28;125411;-82
2024/01/02 11:09:36;;;;;;;0.80;0.60;;;;;;;15.56;65.95;99125.59;4970199;28;112748;-82
2024/01/02 11:12:07;;;;;;;0.90;0.60;;;;;;;15.57;65.94;99116.59;4953353;28;114550;-83
2024/01/02 11:14:43;;;;;;;0.88;0.50;;;;;;;15.60;65.69;99125.31;4956708;28;122843;-82
2024/01/02 11:17:13;;;;;;;0.68;0.60;;;;;;;15.59;65.73;99119.13;4955040;28;125050;-82
2024/01/02 11:19:50;;;;;;;1.23;0.40;;;;;;;15.59;65.70;99113.78;4945480;28;115355;-82
2024/01/02 11:22:31;;;;;;;0.73;0.50;;;;;;;15.58;65.78;99120.13;4966443;28;112525;-81
2024/01/02 11:25:05;;;;;;;1.17;0.50;;;;;;;15.57;65.65;99121.09;4969703;28;122195;-82
2024/01/02 11:27:34;;;;;;;0.60;0.55;;;;;;;15.56;65.48;99108.75;4966415;28;125317;-81
2024/01/02 11:30:04;;;;;;;0.80;0.40;;;;;;;15.53;65.65;99104.53;4971763;28;115803;-82
2024/01/02 11:32:37;;;;;;;0.65;0.40;;;;;;;15.52;65.35;99096.66;4971688;28;114940;-82
2024/01/02 11:35:06;;;;;;;1.42;0.50;;;;;;;15.51;65.50;99087.00;4972046;28;123967;-82